createdAt,value
2022-11-12T00:00:42.572Z,4.06
2022-11-12T00:03:10.393Z,4.01
2022-11-12T00:05:37.572Z,3.98
2022-11-12T00:08:04.655Z,4.12
2022-11-12T00:10:32.273Z,4.01
2022-11-12T00:12:59.471Z,4.06
2022-11-12T00:15:26.490Z,3.99
2022-11-12T00:17:53.053Z,3.96
2022-11-12T00:20:19.676Z,3.95
2022-11-12T00:22:46.265Z,4.04
2022-11-12T00:25:12.966Z,4.00
2022-11-12T00:27:39.577Z,3.99
2022-11-12T00:30:06.842Z,3.90
2022-11-12T00:32:36.495Z,3.87
2022-11-12T00:35:04.533Z,3.89
2022-11-12T00:37:34.330Z,3.89
2022-11-12T00:40:00.888Z,4.00
2022-11-12T00:42:27.482Z,3.89
2022-11-12T00:44:54.089Z,3.89
2022-11-12T00:47:20.655Z,3.77
2022-11-12T00:49:47.241Z,3.84
2022-11-12T00:52:13.915Z,3.70
2022-11-12T00:54:40.499Z,3.76
2022-11-12T00:57:07.068Z,3.73
2022-11-12T00:59:33.672Z,3.94
2022-11-12T01:02:03.431Z,3.69
2022-11-12T01:04:30.041Z,3.74
2022-11-12T01:06:56.640Z,3.77
2022-11-12T01:09:23.208Z,3.61
2022-11-12T01:11:49.934Z,3.57
2022-11-12T01:14:16.522Z,3.56
2022-11-12T01:16:43.400Z,3.56
2022-11-12T01:19:12.159Z,3.57
2022-11-12T01:21:42.341Z,3.57
2022-11-12T01:24:10.022Z,3.71
2022-11-12T01:26:37.129Z,3.58
2022-11-12T01:29:04.634Z,3.59
2022-11-12T01:31:34.525Z,3.57
2022-11-12T01:34:04.793Z,3.44
2022-11-12T01:36:34.364Z,3.43
2022-11-12T01:39:01.225Z,3.40
2022-11-12T01:41:30.813Z,3.34
2022-11-12T01:44:21.680Z,3.32
2022-11-12T01:47:02.924Z,3.41
2022-11-12T01:49:57.424Z,3.51
2022-11-12T01:52:42.587Z,3.51
2022-11-12T01:55:14.104Z,3.20
2022-11-12T01:57:47.362Z,3.19
2022-11-12T02:00:15.366Z,3.13
2022-11-12T02:02:47.171Z,3.03
2022-11-12T02:05:14.992Z,3.06
2022-11-12T02:07:43.090Z,3.02
2022-11-12T02:10:10.627Z,3.17
2022-11-12T02:12:53.289Z,3.15
2022-11-12T02:15:20.446Z,2.97
2022-11-12T02:17:47.088Z,2.98
2022-11-12T02:20:14.767Z,3.02
2022-11-12T02:22:41.464Z,3.11
2022-11-12T02:25:14.867Z,3.07
2022-11-12T02:27:47.269Z,3.01
2022-11-12T02:30:13.899Z,2.96
2022-11-12T02:32:40.705Z,2.93
2022-11-12T02:35:10.218Z,2.95
2022-11-12T02:37:36.793Z,2.87
2022-11-12T02:40:03.830Z,2.89
2022-11-12T02:42:30.391Z,2.84
2022-11-12T02:44:56.985Z,2.96
2022-11-12T02:47:23.549Z,2.96
2022-11-12T02:49:50.135Z,2.92
2022-11-12T02:52:16.708Z,2.97
2022-11-12T02:54:43.331Z,2.86
2022-11-12T02:57:09.866Z,2.84
2022-11-12T02:59:36.436Z,2.90
2022-11-12T03:02:03.023Z,2.87
2022-11-12T03:04:29.605Z,2.94
2022-11-12T03:06:56.232Z,2.89
2022-11-12T03:09:23.601Z,2.88
2022-11-12T03:11:50.178Z,2.89
2022-11-12T03:14:16.755Z,2.94
2022-11-12T03:16:43.385Z,2.75
2022-11-12T03:19:09.980Z,2.80
2022-11-12T03:21:36.665Z,2.75
2022-11-12T03:24:03.301Z,2.72
2022-11-12T03:26:35.427Z,2.80
2022-11-12T03:29:02.459Z,2.75
2022-11-12T03:31:29.001Z,2.75
2022-11-12T03:33:55.662Z,2.80
2022-11-12T03:36:22.265Z,2.75
2022-11-12T03:38:48.839Z,2.79
2022-11-12T03:41:15.408Z,2.77
2022-11-12T03:43:42.005Z,2.79
2022-11-12T03:46:08.598Z,2.74
2022-11-12T03:48:35.177Z,2.82
2022-11-12T03:51:01.793Z,2.78
2022-11-12T03:53:28.419Z,2.77
2022-11-12T03:55:55.061Z,2.78
2022-11-12T03:58:21.709Z,2.75
2022-11-12T04:00:48.312Z,2.77
2022-11-12T04:03:14.881Z,2.81
2022-11-12T04:05:57.027Z,2.80
2022-11-12T04:08:40.367Z,2.79
2022-11-12T04:11:13.776Z,2.77
2022-11-12T04:13:42.217Z,2.75
2022-11-12T04:16:27.038Z,2.73
2022-11-12T04:19:11.395Z,2.67
2022-11-12T04:21:56.778Z,2.63
2022-11-12T04:24:48.293Z,2.60
2022-11-12T04:27:18.833Z,2.68
2022-11-12T04:30:02.133Z,2.67
2022-11-12T04:32:29.398Z,2.59
2022-11-12T04:34:56.829Z,2.51
2022-11-12T04:37:26.204Z,2.47
2022-11-12T04:40:15.952Z,2.53
2022-11-12T04:42:57.802Z,2.54
2022-11-12T04:45:24.545Z,2.50
2022-11-12T04:47:51.149Z,2.53
2022-11-12T04:50:18.831Z,2.49
2022-11-12T04:52:45.393Z,2.50
2022-11-12T04:55:12.018Z,2.49
2022-11-12T04:57:38.979Z,2.55
2022-11-12T05:00:06.086Z,2.55
2022-11-12T05:02:35.910Z,2.59
2022-11-12T05:05:02.524Z,2.59
2022-11-12T05:07:29.089Z,2.57
2022-11-12T05:09:55.651Z,2.62
2022-11-12T05:12:22.258Z,2.78
2022-11-12T05:14:48.857Z,2.69
2022-11-12T05:17:15.458Z,2.64
2022-11-12T05:19:42.052Z,2.58
2022-11-12T05:22:21.995Z,2.54
2022-11-12T05:24:57.159Z,2.56
2022-11-12T05:27:23.790Z,2.62
2022-11-12T05:29:50.407Z,2.66
2022-11-12T05:32:18.719Z,2.66
2022-11-12T05:34:45.306Z,2.66
2022-11-12T05:37:15.101Z,2.67
2022-11-12T05:39:41.737Z,2.59
2022-11-12T05:42:13.883Z,2.56
2022-11-12T05:44:41.138Z,2.59
2022-11-12T05:47:07.885Z,2.63
2022-11-12T05:49:34.493Z,2.62
2022-11-12T05:52:01.104Z,2.62
2022-11-12T05:54:27.780Z,2.74
2022-11-12T05:56:54.410Z,2.62
2022-11-12T05:59:21.073Z,2.52
2022-11-12T06:01:47.899Z,2.59
2022-11-12T06:04:16.059Z,2.46
2022-11-12T06:06:43.961Z,2.42
2022-11-12T06:09:10.851Z,2.43
2022-11-12T06:11:38.182Z,2.46
2022-11-12T06:14:05.469Z,2.45
2022-11-12T06:16:32.748Z,2.52
2022-11-12T06:18:59.854Z,2.52
2022-11-12T06:21:27.871Z,2.50
2022-11-12T06:23:58.777Z,2.44
2022-11-12T06:26:28.272Z,2.46
2022-11-12T06:28:55.293Z,2.45
2022-11-12T06:31:22.819Z,2.46
2022-11-12T06:33:49.999Z,2.42
2022-11-12T06:36:19.580Z,2.41
2022-11-12T06:38:46.195Z,2.43
2022-11-12T06:41:14.507Z,2.53
2022-11-12T06:43:42.023Z,2.51
2022-11-12T06:46:12.348Z,2.46
2022-11-12T06:48:39.258Z,2.57
2022-11-12T06:51:09.017Z,2.62
2022-11-12T06:53:35.618Z,2.61
2022-11-12T06:56:04.253Z,2.53
2022-11-12T06:58:30.870Z,2.54
2022-11-12T07:00:57.575Z,2.56
2022-11-12T07:03:24.183Z,2.62
2022-11-12T07:05:50.769Z,2.66
2022-11-12T07:08:17.407Z,2.55
2022-11-12T07:10:43.964Z,2.64
2022-11-12T07:13:10.517Z,2.56
2022-11-12T07:15:37.087Z,2.55
2022-11-12T07:18:03.822Z,2.50
2022-11-12T07:20:30.348Z,2.52
2022-11-12T07:23:00.468Z,2.54
2022-11-12T07:25:27.110Z,2.56
2022-11-12T07:27:55.073Z,2.57
2022-11-12T07:30:21.669Z,2.55
2022-11-12T07:32:51.956Z,2.54
2022-11-12T07:35:19.907Z,2.60
2022-11-12T07:37:46.476Z,2.65
2022-11-12T07:40:13.231Z,2.73
2022-11-12T07:42:39.807Z,2.73
2022-11-12T07:45:07.875Z,2.66
2022-11-12T07:47:34.424Z,2.77
2022-11-12T07:50:00.981Z,2.81
2022-11-12T07:52:27.561Z,2.77
2022-11-12T07:54:54.140Z,2.74
2022-11-12T07:57:20.721Z,2.72
2022-11-12T07:59:47.473Z,2.81
2022-11-12T08:02:14.033Z,2.70
2022-11-12T08:04:40.592Z,2.65
2022-11-12T08:07:07.332Z,2.67
2022-11-12T08:09:34.070Z,2.73
2022-11-12T08:12:00.650Z,2.90
2022-11-12T08:14:27.185Z,2.71
2022-11-12T08:16:53.820Z,2.71
2022-11-12T08:19:20.430Z,2.66
2022-11-12T08:21:47.136Z,2.71
2022-11-12T08:24:13.696Z,2.73
2022-11-12T08:26:40.480Z,2.73
2022-11-12T08:29:08.839Z,2.79
2022-11-12T08:31:36.119Z,2.81
2022-11-12T08:34:12.218Z,2.77
2022-11-12T08:36:40.332Z,2.85
2022-11-12T08:39:08.409Z,2.88
2022-11-12T08:41:38.287Z,2.90
2022-11-12T08:44:08.482Z,2.95
2022-11-12T08:46:35.586Z,3.12
2022-11-12T08:49:02.301Z,3.17
2022-11-12T08:51:29.043Z,3.09
2022-11-12T08:53:55.608Z,3.03
2022-11-12T08:56:22.240Z,2.99
2022-11-12T08:58:48.837Z,2.99
2022-11-12T09:01:15.688Z,3.02
2022-11-12T09:03:45.518Z,3.01
2022-11-12T09:06:12.071Z,3.07
2022-11-12T09:08:39.873Z,3.14
2022-11-12T09:11:07.032Z,3.03
2022-11-12T09:13:34.332Z,3.10
2022-11-12T09:16:03.966Z,3.04
2022-11-12T09:18:33.621Z,3.26
2022-11-12T09:21:02.169Z,3.14
2022-11-12T09:23:28.808Z,3.23
2022-11-12T09:25:56.925Z,3.38
2022-11-12T09:28:23.842Z,3.31
2022-11-12T09:30:51.791Z,3.39
2022-11-12T09:33:22.013Z,3.59
2022-11-12T09:35:49.403Z,3.64
2022-11-12T09:38:17.809Z,3.68
2022-11-12T09:41:05.288Z,3.64
2022-11-12T09:43:34.381Z,3.63
2022-11-12T09:49:11.690Z,3.63
2022-11-12T09:51:46.964Z,3.58
2022-11-12T09:54:23.562Z,3.56
2022-11-12T09:56:53.198Z,3.57
2022-11-12T09:59:20.905Z,3.60
2022-11-12T10:02:10.497Z,3.82
2022-11-12T10:04:37.045Z,3.70
2022-11-12T10:07:12.804Z,3.88
2022-11-12T10:09:46.727Z,3.76
2022-11-12T10:12:38.918Z,3.72
2022-11-12T10:15:47.108Z,3.68
2022-11-12T10:18:29.075Z,3.71
2022-11-12T10:21:04.893Z,3.74
2022-11-12T10:23:40.918Z,3.78
2022-11-12T10:26:17.293Z,3.80
2022-11-12T10:28:48.047Z,3.81
2022-11-12T10:31:19.233Z,3.82
2022-11-12T10:33:46.230Z,3.86
2022-11-12T10:36:31.134Z,3.79
2022-11-12T10:38:58.142Z,4.02
2022-11-12T10:41:27.787Z,4.00
2022-11-12T10:43:57.279Z,3.97
2022-11-12T10:46:27.889Z,3.98
2022-11-12T10:48:58.665Z,4.05
2022-11-12T10:51:29.043Z,4.17
2022-11-12T10:53:56.286Z,4.34
2022-11-12T10:56:30.545Z,4.21
2022-11-12T10:59:20.533Z,4.36
2022-11-12T11:01:55.645Z,4.26
2022-11-12T11:04:34.080Z,4.14
2022-11-12T11:07:07.470Z,4.10
2022-11-12T11:09:34.952Z,4.10
2022-11-12T11:12:02.214Z,4.12
2022-11-12T11:14:32.082Z,4.15
2022-11-12T11:17:02.286Z,4.23
2022-11-12T11:19:39.904Z,4.29
2022-11-12T11:22:22.071Z,4.30
2022-11-12T11:25:19.594Z,4.29
2022-11-12T11:28:05.833Z,4.32
2022-11-12T11:30:33.261Z,4.38
2022-11-12T11:33:20.786Z,4.35
2022-11-12T11:35:59.915Z,4.52
2022-11-12T11:38:27.737Z,4.64
2022-11-12T11:41:21.182Z,4.50
2022-11-12T11:44:06.820Z,4.60
2022-11-12T11:46:37.458Z,4.58
2022-11-12T11:49:24.848Z,4.57
2022-11-12T11:52:14.977Z,4.61
2022-11-12T11:54:57.738Z,4.66
2022-11-12T11:57:29.779Z,4.64
2022-11-12T12:00:11.781Z,4.78
2022-11-12T12:02:54.367Z,4.77
2022-11-12T12:05:41.811Z,4.82
2022-11-12T12:08:13.000Z,5.07
2022-11-12T12:11:08.165Z,5.32
2022-11-12T12:13:43.678Z,5.32
2022-11-12T12:16:11.304Z,5.28
2022-11-12T12:21:44.580Z,5.28
2022-11-12T12:24:29.901Z,5.20
2022-11-12T12:27:03.549Z,5.21
2022-11-12T12:29:33.899Z,5.16
2022-11-12T12:32:24.301Z,5.39
2022-11-12T12:34:58.988Z,5.30
2022-11-12T12:37:37.935Z,5.24
2022-11-12T12:40:05.746Z,5.35
2022-11-12T12:42:56.544Z,5.29
2022-11-12T12:45:23.073Z,5.42
2022-11-12T12:47:52.122Z,5.51
2022-11-12T12:50:21.411Z,5.49
2022-11-12T12:53:05.389Z,5.48
2022-11-12T12:55:35.915Z,5.43
2022-11-12T12:58:02.520Z,5.54
2022-11-12T13:00:38.262Z,5.27
2022-11-12T13:03:05.610Z,5.18
2022-11-12T13:05:40.394Z,5.09
2022-11-12T13:08:11.573Z,5.09
2022-11-12T13:10:39.163Z,5.07
2022-11-12T13:13:29.102Z,5.08
2022-11-12T13:16:00.343Z,5.06
2022-11-12T13:18:42.793Z,5.05
2022-11-12T13:21:10.380Z,5.08
2022-11-12T13:24:11.129Z,5.36
2022-11-12T13:26:44.537Z,5.18
2022-11-12T13:29:27.398Z,5.08
2022-11-12T13:32:24.463Z,5.08
2022-11-12T13:34:51.112Z,5.08
2022-11-12T13:37:21.280Z,5.10
2022-11-12T13:39:47.917Z,5.13
2022-11-12T13:42:32.595Z,5.33
2022-11-12T13:45:00.682Z,5.27
2022-11-12T13:47:29.405Z,5.25
2022-11-12T13:50:01.298Z,5.23
2022-11-12T13:52:29.029Z,5.22
2022-11-12T13:55:15.878Z,5.25
2022-11-12T13:57:48.790Z,5.22
2022-11-12T14:00:26.435Z,5.52
2022-11-12T14:03:00.526Z,5.57
2022-11-12T14:05:30.578Z,5.45
2022-11-12T14:08:32.267Z,5.36
2022-11-12T14:11:15.073Z,5.44
2022-11-12T14:14:12.325Z,5.39
2022-11-12T14:17:04.822Z,5.38
2022-11-12T14:19:49.081Z,5.46
2022-11-12T14:22:18.492Z,5.65
2022-11-12T14:24:48.197Z,5.60
2022-11-12T14:27:35.318Z,5.64
2022-11-12T14:30:19.268Z,5.49
2022-11-12T14:32:48.345Z,5.57
2022-11-12T14:35:30.377Z,5.43
2022-11-12T14:38:15.369Z,5.38
2022-11-12T14:40:50.205Z,5.61
2022-11-12T14:43:37.701Z,5.63
2022-11-12T14:46:07.082Z,5.64
2022-11-12T14:48:54.279Z,5.55
2022-11-12T14:51:22.496Z,5.44
2022-11-12T14:53:56.238Z,5.39
2022-11-12T14:56:36.303Z,5.32
2022-11-12T14:59:04.611Z,5.48
2022-11-12T15:04:25.794Z,5.54
2022-11-12T15:06:55.094Z,5.40
2022-11-12T15:09:38.077Z,5.37
2022-11-12T15:12:09.186Z,5.33
2022-11-12T15:14:35.847Z,5.62
2022-11-12T15:17:05.507Z,5.53
2022-11-12T15:19:32.666Z,5.45
2022-11-12T15:22:01.755Z,5.43
2022-11-12T15:24:32.688Z,5.58
2022-11-12T15:27:02.150Z,5.50
2022-11-12T15:29:33.100Z,5.45
2022-11-12T15:32:14.848Z,5.64
2022-11-12T15:34:41.401Z,5.79
2022-11-12T15:37:12.977Z,5.57
2022-11-12T15:39:44.141Z,5.48
2022-11-12T15:42:25.328Z,5.44
2022-11-12T15:44:59.443Z,5.43
2022-11-12T15:47:26.091Z,5.48
2022-11-12T15:49:55.416Z,5.43
2022-11-12T15:52:23.045Z,5.41
2022-11-12T15:54:49.672Z,5.40
2022-11-12T15:57:23.332Z,5.43
2022-11-12T15:59:57.352Z,5.45
2022-11-12T16:02:24.733Z,5.40
2022-11-12T16:04:51.310Z,5.37
2022-11-12T16:07:18.007Z,5.42
2022-11-12T16:09:44.600Z,5.51
2022-11-12T16:12:13.237Z,5.72
2022-11-12T16:14:40.490Z,5.64
2022-11-12T16:17:13.256Z,5.64
2022-11-12T16:19:39.902Z,5.53
2022-11-12T16:22:12.473Z,5.44
2022-11-12T16:24:40.634Z,5.41
2022-11-12T16:27:11.636Z,5.39
2022-11-12T16:29:38.216Z,5.33
2022-11-12T16:32:05.186Z,5.32
2022-11-12T16:34:31.849Z,5.32
2022-11-12T16:36:58.919Z,5.33
2022-11-12T16:39:25.549Z,5.34
2022-11-12T16:41:52.187Z,5.42
2022-11-12T16:44:22.025Z,5.29
2022-11-12T16:46:48.643Z,5.29
2022-11-12T16:49:15.603Z,5.26
2022-11-12T16:51:42.184Z,5.27
2022-11-12T16:54:09.515Z,5.23
2022-11-12T16:56:37.057Z,5.19
2022-11-12T16:59:04.579Z,5.14
2022-11-12T17:01:32.655Z,5.17
2022-11-12T17:03:59.443Z,5.20
2022-11-12T17:06:39.796Z,5.28
2022-11-12T17:09:10.800Z,5.29
2022-11-12T17:11:37.808Z,5.28
2022-11-12T17:14:05.970Z,5.18
2022-11-12T17:16:32.685Z,5.14
2022-11-12T17:19:01.926Z,5.14
2022-11-12T17:21:29.259Z,5.16
2022-11-12T17:23:57.237Z,5.32
2022-11-12T17:26:24.470Z,5.16
2022-11-12T17:28:57.547Z,5.15
2022-11-12T17:31:26.988Z,5.11
2022-11-12T17:33:53.750Z,5.10
2022-11-12T17:36:22.569Z,5.09
2022-11-12T17:38:53.072Z,5.11
2022-11-12T17:41:19.672Z,5.13
2022-11-12T17:43:47.345Z,5.11
2022-11-12T17:46:14.921Z,5.12
2022-11-12T17:48:41.726Z,5.19
2022-11-12T17:51:12.975Z,5.12
2022-11-12T17:53:40.251Z,5.30
2022-11-12T17:56:09.088Z,5.14
2022-11-12T17:58:36.286Z,5.14
2022-11-12T18:01:08.322Z,5.17
2022-11-12T18:03:39.237Z,5.22
2022-11-12T18:06:06.312Z,5.09
2022-11-12T18:08:32.899Z,5.08
2022-11-12T18:11:00.152Z,5.16
2022-11-12T18:13:27.681Z,5.21
2022-11-12T18:15:54.521Z,5.19
2022-11-12T18:18:21.249Z,5.01
2022-11-12T18:20:47.889Z,4.99
2022-11-12T18:23:14.465Z,5.05
2022-11-12T18:25:41.274Z,4.93
2022-11-12T18:28:09.758Z,4.91
2022-11-12T18:30:37.077Z,4.89
2022-11-12T18:33:04.444Z,4.95
2022-11-12T18:35:31.071Z,4.89
2022-11-12T18:37:57.724Z,4.89
2022-11-12T18:40:24.575Z,4.91
2022-11-12T18:42:51.149Z,4.94
2022-11-12T18:45:17.868Z,4.86
2022-11-12T18:47:44.478Z,5.01
2022-11-12T18:50:11.100Z,4.88
2022-11-12T18:52:37.804Z,4.88
2022-11-12T18:55:05.037Z,4.98
2022-11-12T18:57:31.657Z,4.86
2022-11-12T18:59:58.323Z,4.92
2022-11-12T19:02:24.942Z,4.77
2022-11-12T19:04:51.574Z,4.75
2022-11-12T19:07:18.213Z,4.73
2022-11-12T19:09:44.796Z,4.79
2022-11-12T19:12:11.432Z,4.77
2022-11-12T19:14:38.053Z,4.74
2022-11-12T19:17:04.775Z,4.72
2022-11-12T19:19:31.392Z,4.71
2022-11-12T19:21:57.937Z,4.70
2022-11-12T19:24:24.500Z,4.67
2022-11-12T19:26:51.606Z,4.67
2022-11-12T19:29:18.195Z,4.66
2022-11-12T19:31:44.845Z,4.65
2022-11-12T19:34:11.423Z,4.66
2022-11-12T19:36:37.998Z,4.68
2022-11-12T19:39:10.924Z,4.68
2022-11-12T19:41:47.737Z,4.63
2022-11-12T19:44:14.410Z,4.65
2022-11-12T19:46:41.041Z,4.66
2022-11-12T19:49:08.593Z,4.60
2022-11-12T19:51:35.146Z,4.63
2022-11-12T19:54:02.072Z,4.66
2022-11-12T19:56:29.323Z,4.63
2022-11-12T19:58:55.937Z,4.61
2022-11-12T20:01:22.683Z,4.58
2022-11-12T20:03:49.636Z,4.55
2022-11-12T20:06:19.711Z,4.58
2022-11-12T20:08:46.683Z,4.64
2022-11-12T20:11:13.649Z,4.73
2022-11-12T20:13:40.300Z,4.57
2022-11-12T20:16:09.436Z,4.51
2022-11-12T20:18:36.019Z,4.40
2022-11-12T20:21:06.353Z,4.34
2022-11-12T20:23:34.292Z,4.27
2022-11-12T20:26:04.711Z,4.33
2022-11-12T20:28:33.767Z,4.25
2022-11-12T20:31:02.426Z,4.27
2022-11-12T20:33:29.452Z,4.33
2022-11-12T20:36:03.130Z,4.32
2022-11-12T20:38:30.402Z,4.37
2022-11-12T20:41:00.026Z,4.37
2022-11-12T20:43:29.225Z,4.38
2022-11-12T20:45:59.349Z,4.39
2022-11-12T20:48:26.707Z,4.42
2022-11-12T20:51:25.237Z,4.37
2022-11-12T20:54:01.480Z,4.37
2022-11-12T20:56:30.461Z,4.37
2022-11-12T20:58:58.334Z,4.38
2022-11-12T21:01:26.448Z,4.49
2022-11-12T21:03:53.138Z,4.33
2022-11-12T21:06:22.734Z,4.23
2022-11-12T21:08:53.903Z,4.30
2022-11-12T21:11:22.803Z,4.24
2022-11-12T21:13:49.745Z,4.26
2022-11-12T21:16:16.440Z,4.23
2022-11-12T21:18:43.791Z,4.24
2022-11-12T21:21:13.417Z,4.17
2022-11-12T21:23:43.604Z,4.19
2022-11-12T21:26:14.866Z,4.26
2022-11-12T21:28:44.224Z,4.25
2022-11-12T21:31:13.609Z,4.29
2022-11-12T21:33:40.418Z,4.22
2022-11-12T21:36:09.473Z,4.29
2022-11-12T21:38:39.864Z,4.22
2022-11-12T21:41:09.336Z,4.17
2022-11-12T21:43:39.005Z,4.16
2022-11-12T21:46:09.101Z,4.14
2022-11-12T21:48:36.497Z,4.05
2022-11-12T21:51:08.020Z,4.06
2022-11-12T21:53:34.806Z,4.11
2022-11-12T21:56:07.032Z,4.00
2022-11-12T21:58:34.101Z,3.95
2022-11-12T22:01:17.516Z,4.08
2022-11-12T22:03:44.724Z,3.93
2022-11-12T22:06:12.045Z,4.14
2022-11-12T22:08:39.303Z,3.92
2022-11-12T22:11:09.625Z,3.83
2022-11-12T22:13:37.250Z,3.90
2022-11-12T22:16:07.816Z,3.74
2022-11-12T22:18:34.598Z,3.67
2022-11-12T22:21:04.375Z,3.53
2022-11-12T22:23:36.103Z,3.43
2022-11-12T22:26:05.055Z,3.41
2022-11-12T22:28:32.200Z,3.57
2022-11-12T22:31:10.085Z,3.52
2022-11-12T22:33:38.033Z,3.48
2022-11-12T22:36:07.389Z,3.59
2022-11-12T22:38:35.407Z,3.44
2022-11-12T22:41:03.964Z,3.41
2022-11-12T22:43:30.641Z,3.50
2022-11-12T22:45:57.207Z,3.50
2022-11-12T22:48:23.843Z,3.49
2022-11-12T22:50:50.569Z,3.51
2022-11-12T22:53:17.242Z,3.52
2022-11-12T22:55:43.816Z,3.47
2022-11-12T22:58:10.568Z,3.49
2022-11-12T23:00:37.140Z,3.50
2022-11-12T23:03:03.789Z,3.55
2022-11-12T23:05:30.320Z,3.40
2022-11-12T23:07:56.930Z,3.31
2022-11-12T23:10:23.496Z,3.46
2022-11-12T23:12:50.113Z,3.49
2022-11-12T23:15:16.708Z,3.47
2022-11-12T23:17:43.274Z,3.50
2022-11-12T23:20:10.101Z,3.44
2022-11-12T23:22:36.745Z,3.43
2022-11-12T23:25:03.596Z,3.44
2022-11-12T23:27:30.234Z,3.46
2022-11-12T23:29:56.783Z,3.48
2022-11-12T23:32:23.359Z,3.52
2022-11-12T23:34:50.053Z,3.50
2022-11-12T23:37:16.682Z,3.50
2022-11-12T23:39:43.204Z,3.49
2022-11-12T23:42:09.763Z,3.50
2022-11-12T23:44:36.380Z,3.48
2022-11-12T23:47:02.992Z,3.39
2022-11-12T23:49:29.525Z,3.44
2022-11-12T23:51:56.101Z,3.31
2022-11-12T23:54:22.669Z,3.32
2022-11-12T23:56:49.284Z,3.34
2022-11-12T23:59:15.831Z,3.30
